createdAt,value
2019-02-12T00:02:42.749Z,97397.00
2019-02-12T00:07:44.309Z,97407.08
2019-02-12T00:12:45.936Z,97416.63
2019-02-12T00:17:48.614Z,97406.72
2019-02-12T00:22:50.175Z,97425.58
2019-02-12T00:27:51.786Z,97422.96
2019-02-12T00:32:53.456Z,97427.19
2019-02-12T00:37:55.126Z,97428.59
2019-02-12T00:42:56.859Z,97449.75
2019-02-12T00:47:58.518Z,97450.77
2019-02-12T00:53:00.081Z,97451.20
2019-02-12T00:58:01.755Z,97464.28
2019-02-12T01:03:03.466Z,97464.98
2019-02-12T01:08:05.087Z,97464.12
2019-02-12T01:13:06.800Z,97465.28
2019-02-12T01:18:08.456Z,97458.44
2019-02-12T01:23:10.022Z,97468.30
2019-02-12T01:28:11.677Z,97470.22
2019-02-12T01:33:13.280Z,97461.01
2019-02-12T01:38:15.355Z,97464.88
2019-02-12T01:43:16.917Z,97468.11
2019-02-12T01:48:18.538Z,97476.95
2019-02-12T01:53:20.114Z,97480.71
2019-02-12T01:58:21.679Z,97477.43
2019-02-12T02:03:23.248Z,97483.80
2019-02-12T02:08:25.758Z,97485.03
2019-02-12T02:13:27.322Z,97489.34
2019-02-12T02:18:28.949Z,97484.64
2019-02-12T02:23:30.538Z,97488.42
2019-02-12T02:28:32.161Z,97495.72
2019-02-12T02:33:33.712Z,97504.78
2019-02-12T02:38:35.270Z,97507.35
2019-02-12T02:43:36.837Z,97508.87
2019-02-12T02:48:38.437Z,97518.51
2019-02-12T02:53:40.019Z,97519.65
2019-02-12T02:58:41.589Z,97532.81
2019-02-12T03:03:43.187Z,97543.36
2019-02-12T03:08:44.774Z,97551.34
2019-02-12T03:13:46.364Z,97563.20
2019-02-12T03:18:47.932Z,97554.13
2019-02-12T03:23:49.490Z,97568.44
2019-02-12T03:28:51.212Z,97587.66
2019-02-12T03:33:52.956Z,97596.89
2019-02-12T03:38:54.510Z,97597.73
2019-02-12T03:43:56.166Z,97618.02
2019-02-12T03:48:57.721Z,97629.47
2019-02-12T03:53:59.326Z,97654.23
2019-02-12T03:59:01.191Z,97652.95
2019-02-12T04:04:03.143Z,97652.20
2019-02-12T04:09:05.308Z,97652.64
2019-02-12T04:14:07.219Z,97668.40
2019-02-12T04:19:08.830Z,97660.95
2019-02-12T04:24:10.397Z,97666.92
2019-02-12T04:29:12.184Z,97683.19
2019-02-12T04:34:13.753Z,97704.57
2019-02-12T04:39:15.317Z,97699.27
2019-02-12T04:44:16.886Z,97710.37
2019-02-12T04:49:18.452Z,97713.75
2019-02-12T04:54:20.016Z,97721.19
2019-02-12T04:59:22.894Z,97726.30
2019-02-12T05:04:24.462Z,97728.77
2019-02-12T05:09:29.464Z,97728.37
2019-02-12T05:14:31.081Z,97724.99
2019-02-12T05:19:32.654Z,97727.13
2019-02-12T05:24:34.421Z,97732.95
2019-02-12T05:29:36.038Z,97732.59
2019-02-12T05:34:38.704Z,97728.66
2019-02-12T05:39:40.276Z,97730.88
2019-02-12T05:44:41.888Z,97730.48
2019-02-12T05:49:43.459Z,97730.23
2019-02-12T05:54:45.016Z,97728.16
2019-02-12T05:59:47.573Z,97722.41
2019-02-12T06:04:49.346Z,97742.37
2019-02-12T06:09:50.997Z,97748.75
2019-02-12T06:14:52.643Z,97743.52
2019-02-12T06:19:54.210Z,97746.71
2019-02-12T06:24:56.777Z,97752.19
2019-02-12T06:29:58.426Z,97756.11
2019-02-12T06:34:59.985Z,97756.36
2019-02-12T06:40:02.789Z,97768.31
2019-02-12T06:45:09.085Z,97767.52
2019-02-12T06:50:12.759Z,97781.88
2019-02-12T06:55:14.324Z,97775.48
2019-02-12T07:00:15.949Z,97780.31
2019-02-12T07:05:17.571Z,97782.14
2019-02-12T07:10:19.539Z,97786.52
2019-02-12T07:15:24.408Z,97792.00
2019-02-12T07:20:55.345Z,97785.67
2019-02-12T07:26:08.466Z,97813.50
2019-02-12T07:31:51.004Z,97816.36
2019-02-12T07:37:10.119Z,97819.52
2019-02-12T07:42:44.260Z,97818.55
2019-02-12T07:48:18.672Z,97840.88
2019-02-12T07:53:31.921Z,97848.30
2019-02-12T07:58:57.701Z,97852.48
2019-02-12T08:04:26.177Z,97853.76
2019-02-12T08:09:59.415Z,97864.94
2019-02-12T08:15:26.187Z,97877.89
2019-02-12T08:21:22.742Z,97888.06
2019-02-12T08:27:00.360Z,97895.06
2019-02-12T08:32:13.444Z,97894.20
2019-02-12T08:37:29.353Z,97907.28
2019-02-12T08:42:57.374Z,97911.67
2019-02-12T08:48:32.002Z,97923.25
2019-02-12T08:53:50.518Z,97929.72
2019-02-12T08:59:00.419Z,97949.16
2019-02-12T09:04:29.086Z,97956.66
2019-02-12T09:10:08.163Z,97959.66
2019-02-12T09:15:31.940Z,97968.32
2019-02-12T09:20:45.151Z,97966.89
2019-02-12T09:25:55.408Z,97970.45
2019-02-12T09:31:34.974Z,97974.33
2019-02-12T09:37:00.235Z,97987.16
2019-02-12T09:42:19.469Z,97995.42
2019-02-12T09:47:48.779Z,97995.14
2019-02-12T09:53:19.185Z,98003.03
2019-02-12T09:58:32.761Z,98002.61
2019-02-12T10:03:55.116Z,98016.80
2019-02-12T10:09:17.277Z,98023.92
2019-02-12T10:14:34.074Z,98018.75
2019-02-12T10:19:47.316Z,98030.17
2019-02-12T10:24:57.383Z,98028.53
2019-02-12T10:30:39.187Z,98029.27
2019-02-12T10:35:40.857Z,98040.69
2019-02-12T10:40:42.771Z,98026.84
2019-02-12T10:45:44.944Z,98022.09
2019-02-12T10:50:46.509Z,98020.61
2019-02-12T10:55:48.177Z,98028.20
2019-02-12T11:00:50.353Z,98028.22
2019-02-12T11:05:52.049Z,98038.86
2019-02-12T11:10:53.824Z,98031.23
2019-02-12T11:15:55.397Z,98030.66
2019-02-12T11:20:56.973Z,98037.66
2019-02-12T11:25:58.846Z,98036.55
2019-02-12T11:31:00.514Z,98044.14
2019-02-12T11:36:02.081Z,98045.77
2019-02-12T11:41:04.096Z,98049.56
2019-02-12T11:46:05.688Z,98043.11
2019-02-12T11:51:08.161Z,98045.00
2019-02-12T11:56:09.740Z,98042.09
2019-02-12T12:01:13.206Z,98057.09
2019-02-12T12:06:14.923Z,98045.56
2019-02-12T12:11:16.545Z,98055.95
2019-02-12T12:16:18.166Z,98060.55
2019-02-12T12:21:19.844Z,98055.98
2019-02-12T12:26:21.486Z,98066.91
2019-02-12T12:31:23.042Z,98059.22
2019-02-12T12:36:24.610Z,98069.04
2019-02-12T12:41:26.543Z,98077.30
2019-02-12T12:46:28.192Z,98077.30
2019-02-12T12:51:30.670Z,98080.64
2019-02-12T12:56:32.260Z,98097.48
2019-02-12T13:01:33.933Z,98104.16
2019-02-12T13:06:35.923Z,98103.69
2019-02-12T13:11:37.484Z,98105.79
2019-02-12T13:16:39.118Z,98121.62
2019-02-12T13:21:40.681Z,98130.48
2019-02-12T13:26:42.248Z,98140.81
2019-02-12T13:31:43.817Z,98142.89
2019-02-12T13:36:45.393Z,98163.59
2019-02-12T13:41:47.143Z,98168.61
2019-02-12T13:46:48.776Z,98174.52
2019-02-12T13:51:50.462Z,98177.27
2019-02-12T13:56:52.033Z,98189.51
2019-02-12T14:01:53.613Z,98204.05
2019-02-12T14:06:55.237Z,98205.88
2019-02-12T14:11:56.810Z,98205.22
2019-02-12T14:16:58.441Z,98210.20
2019-02-12T14:22:00.033Z,98217.66
2019-02-12T14:27:01.594Z,98219.30
2019-02-12T14:32:03.298Z,98226.49
2019-02-12T14:37:04.873Z,98226.22
2019-02-12T14:42:06.530Z,98232.03
2019-02-12T14:47:08.145Z,98233.98
2019-02-12T14:52:09.771Z,98248.03
2019-02-12T14:57:11.399Z,98255.45
2019-02-12T15:02:12.978Z,98260.41
2019-02-12T15:07:14.558Z,98261.19
2019-02-12T15:12:16.220Z,98272.53
2019-02-12T15:17:17.830Z,98279.92
2019-02-12T15:22:19.451Z,98284.25
2019-02-12T15:27:21.048Z,98283.16
2019-02-12T15:32:22.633Z,98288.59
2019-02-12T15:37:24.206Z,98305.66
2019-02-12T15:42:25.925Z,98311.41
2019-02-12T15:47:27.497Z,98317.17
2019-02-12T15:52:29.316Z,98331.66
2019-02-12T15:57:30.925Z,98349.91
2019-02-12T16:02:34.436Z,98357.41
2019-02-12T16:07:36.256Z,98360.28
2019-02-12T16:12:37.930Z,98365.67
2019-02-12T16:17:39.497Z,98379.66
2019-02-12T16:22:41.105Z,98395.33
2019-02-12T16:27:42.678Z,98404.92
2019-02-12T16:32:44.445Z,98415.39
2019-02-12T16:37:46.203Z,98422.63
2019-02-12T16:42:47.898Z,98437.14
2019-02-12T16:47:49.576Z,98442.14
2019-02-12T16:52:52.272Z,98455.17
2019-02-12T16:57:54.048Z,98461.71
2019-02-12T17:02:55.625Z,98470.11
2019-02-12T17:07:57.263Z,98471.91
2019-02-12T17:12:58.903Z,98487.30
2019-02-12T17:18:00.590Z,98494.80
2019-02-12T17:23:02.306Z,98506.70
2019-02-12T17:28:03.978Z,98508.42
2019-02-12T17:33:05.641Z,98525.60
2019-02-12T17:38:08.234Z,98531.20
2019-02-12T17:43:09.905Z,98542.61
2019-02-12T17:48:11.515Z,98551.41
2019-02-12T17:53:13.790Z,98561.46
2019-02-12T17:58:15.399Z,98569.77
2019-02-12T18:03:17.165Z,98575.66
2019-02-12T18:08:19.362Z,98579.58
2019-02-12T18:13:23.231Z,98589.77
2019-02-12T18:18:25.088Z,98603.47
2019-02-12T18:23:26.688Z,98616.44
2019-02-12T18:28:28.256Z,98625.95
2019-02-12T18:33:29.834Z,98627.05
2019-02-12T18:38:31.415Z,98635.19
2019-02-12T18:43:33.177Z,98648.58
2019-02-12T18:48:34.914Z,98648.98
2019-02-12T18:53:36.685Z,98666.87
2019-02-12T18:58:38.407Z,98673.73
2019-02-12T19:03:41.979Z,98682.89
2019-02-12T19:08:43.759Z,98683.35
2019-02-12T19:13:45.471Z,98702.52
2019-02-12T19:18:47.495Z,98699.89
2019-02-12T19:23:49.062Z,98709.05
2019-02-12T19:28:50.631Z,98710.88
2019-02-12T19:33:52.208Z,98722.23
2019-02-12T19:38:53.776Z,98736.14
2019-02-12T19:43:55.414Z,98731.75
2019-02-12T19:48:57.024Z,98726.63
2019-02-12T19:53:58.693Z,98737.98
2019-02-12T19:59:00.283Z,98740.19
2019-02-12T20:04:01.853Z,98735.11
2019-02-12T20:09:06.268Z,98747.88
2019-02-12T20:14:10.086Z,98753.01
2019-02-12T20:19:11.646Z,98756.57
2019-02-12T20:24:13.933Z,98762.75
2019-02-12T20:29:15.803Z,98758.34
2019-02-12T20:34:17.696Z,98758.34
2019-02-12T20:39:20.147Z,98760.64
2019-02-12T20:44:22.090Z,98762.95
2019-02-12T20:49:23.663Z,98766.05
2019-02-12T20:54:25.223Z,98769.17
2019-02-12T20:59:26.891Z,98767.03
2019-02-12T21:04:28.503Z,98769.65
2019-02-12T21:09:30.090Z,98773.89
2019-02-12T21:14:32.077Z,98779.27
2019-02-12T21:19:33.634Z,98787.48
2019-02-12T21:24:36.301Z,98787.64
2019-02-12T21:29:37.904Z,98792.70
2019-02-12T21:34:39.509Z,98792.20
2019-02-12T21:39:41.218Z,98796.12
2019-02-12T21:44:42.947Z,98802.34
2019-02-12T21:49:44.513Z,98801.92
2019-02-12T21:54:46.974Z,98804.54
2019-02-12T21:59:48.570Z,98805.05
2019-02-12T22:04:50.217Z,98814.68
2019-02-12T22:09:51.870Z,98827.75
2019-02-12T22:14:53.531Z,98834.70
2019-02-12T22:19:55.099Z,98842.55
2019-02-12T22:24:56.653Z,98847.46
2019-02-12T22:29:58.218Z,98854.00
2019-02-12T22:34:59.894Z,98856.70
2019-02-12T22:40:07.031Z,98859.23
2019-02-12T22:45:12.849Z,98874.91
2019-02-12T22:50:14.615Z,98878.09
2019-02-12T22:55:16.171Z,98876.36
2019-02-12T23:00:46.374Z,98888.08
2019-02-12T23:05:49.120Z,98892.00
2019-02-12T23:10:50.854Z,98892.06
2019-02-12T23:15:52.419Z,98892.56
2019-02-12T23:20:54.412Z,98898.17
2019-02-12T23:25:55.985Z,98897.62
2019-02-12T23:30:57.589Z,98900.32
2019-02-12T23:35:59.487Z,98904.24
2019-02-12T23:41:01.036Z,98898.97
2019-02-12T23:46:02.658Z,98905.55
2019-02-12T23:51:04.206Z,98906.38
2019-02-12T23:56:05.837Z,98903.39
